Time;durP1;ratioP1;P1;durP2;ratioP2;P2;SDS_P1;SDS_P2;PMS_P1;PMS_P2;Temp;Humidity;BMP_temperature;BMP_pressure;BME280_temperature;BME280_humidity;BME280_pressure;Samples;Min_cycle;Max_cycle;Signal;HPM_P1;HPM_P2
2023/06/15 00:00:13;;;;;;;0.10;0.10;;;21.80;68.50;;;;;;5052543;28;20029;-79
2023/06/15 00:02:40;;;;;;;0.00;0.00;;;21.70;68.50;;;;;;5052231;28;20103;-78
2023/06/15 00:05:07;;;;;;;0.00;0.00;;;21.80;69.00;;;;;;5052460;28;20484;-79
2023/06/15 00:07:33;;;;;;;0.57;0.57;;;21.70;68.40;;;;;;5051958;28;20495;-78
2023/06/15 00:09:59;;;;;;;0.17;0.17;;;21.80;68.20;;;;;;5051314;28;20056;-79
2023/06/15 00:12:24;;;;;;;0.10;0.10;;;21.90;68.20;;;;;;5052400;28;20108;-79
2023/06/15 00:14:50;;;;;;;0.60;0.57;;;21.70;68.30;;;;;;5052091;28;20084;-79
2023/06/15 00:17:16;;;;;;;0.00;0.00;;;21.60;68.90;;;;;;5038196;28;20040;-80
2023/06/15 00:19:44;;;;;;;0.05;0.05;;;21.50;69.30;;;;;;5051648;28;20025;-80
2023/06/15 00:22:14;;;;;;;0.08;0.08;;;21.80;68.30;;;;;;5055934;28;20049;-79
2023/06/15 00:24:43;;;;;;;1.93;1.20;;;21.80;68.50;;;;;;5055925;28;20033;-79
2023/06/15 00:27:11;;;;;;;0.15;0.15;;;21.90;68.40;;;;;;5055983;28;20481;-79
2023/06/15 00:29:37;;;;;;;0.10;0.10;;;21.20;70.00;;;;;;5054609;28;20122;-76
2023/06/15 00:32:07;;;;;;;0.40;0.40;;;21.40;70.20;;;;;;5054751;28;20053;-79
2023/06/15 00:34:32;;;;;;;0.05;0.05;;;21.20;70.40;;;;;;5055891;28;20084;-79
2023/06/15 00:36:58;;;;;;;0.00;0.00;;;21.20;70.70;;;;;;5055526;28;20068;-79
2023/06/15 00:39:24;;;;;;;0.00;0.00;;;21.30;70.90;;;;;;5054567;28;20033;-79
2023/06/15 00:41:50;;;;;;;0.10;0.10;;;21.40;70.70;;;;;;5054112;28;20032;-79
2023/06/15 00:44:16;;;;;;;0.00;0.00;;;21.50;70.60;;;;;;5055476;28;20067;-80
2023/06/15 00:46:41;;;;;;;0.00;0.00;;;21.50;70.50;;;;;;5055619;28;20461;-79
2023/06/15 00:49:08;;;;;;;0.00;0.00;;;21.40;70.60;;;;;;5055340;28;20122;-80
2023/06/15 00:51:38;;;;;;;3.00;1.10;;;21.20;71.30;;;;;;5054126;28;20009;-80
2023/06/15 00:54:06;;;;;;;0.10;0.10;;;21.30;71.30;;;;;;5055095;28;20032;-79
2023/06/15 00:56:31;;;;;;;0.08;0.08;;;21.20;71.40;;;;;;5055642;28;20025;-80
2023/06/15 00:58:58;;;;;;;0.20;0.20;;;21.40;71.10;;;;;;5053912;28;20017;-79
2023/06/15 01:01:26;;;;;;;0.10;0.10;;;21.20;71.10;;;;;;5053930;28;20091;-79
2023/06/15 01:03:54;;;;;;;0.10;0.10;;;21.00;71.90;;;;;;5055341;28;20068;-79
2023/06/15 01:06:24;;;;;;;0.10;0.10;;;21.20;71.60;;;;;;5053665;28;20025;-79
2023/06/15 01:08:53;;;;;;;3.50;0.73;;;21.20;71.80;;;;;;5055074;28;20029;-79
2023/06/15 01:11:20;;;;;;;0.00;0.00;;;21.20;72.10;;;;;;5055022;28;20029;-79
2023/06/15 01:13:46;;;;;;;0.25;0.25;;;21.00;72.40;;;;;;5037126;28;20110;-79
2023/06/15 01:16:21;;;;;;;0.10;0.10;;;20.60;73.40;;;;;;5055170;28;20561;-80
2023/06/15 01:18:56;;;;;;;0.20;0.20;;;20.70;73.80;;;;;;5053639;28;20386;-79
2023/06/15 01:21:27;;;;;;;0.13;0.13;;;20.50;74.00;;;;;;5054941;28;20033;-79
2023/06/15 01:24:25;;;;;;;0.00;0.00;;;20.20;75.20;;;;;;5053456;28;20037;-80
2023/06/15 01:26:52;;;;;;;0.00;0.00;;;20.50;75.00;;;;;;5053573;28;20444;-80
2023/06/15 01:29:20;;;;;;;0.00;0.00;;;20.30;75.40;;;;;;5063673;28;20051;-79
2023/06/15 01:31:47;;;;;;;0.00;0.00;;;20.30;74.90;;;;;;5073691;28;20032;-79
2023/06/15 01:34:13;;;;;;;0.10;0.10;;;20.40;75.10;;;;;;5070954;28;20024;-78
2023/06/15 01:36:40;;;;;;;0.10;0.10;;;20.30;75.40;;;;;;5073406;28;20021;-79
2023/06/15 01:39:07;;;;;;;0.20;0.20;;;20.10;76.40;;;;;;5074829;28;20431;-79
2023/06/15 01:41:34;;;;;;;0.10;0.10;;;20.20;76.70;;;;;;5074218;28;20103;-80
2023/06/15 01:44:03;;;;;;;0.10;0.10;;;20.50;75.40;;;;;;5073154;28;20039;-79
2023/06/15 01:46:30;;;;;;;0.00;0.00;;;20.30;76.50;;;;;;5073202;28;20021;-80
2023/06/15 01:48:56;;;;;;;0.10;0.10;;;20.40;76.10;;;;;;5072853;28;20048;-80
2023/06/15 01:51:26;;;;;;;0.00;0.00;;;20.10;77.20;;;;;;5074402;28;20028;-79
2023/06/15 01:53:52;;;;;;;0.10;0.10;;;20.20;77.80;;;;;;5074293;28;20542;-80
2023/06/15 01:56:18;;;;;;;0.10;0.10;;;20.00;78.30;;;;;;5074470;28;20025;-79
2023/06/15 01:58:45;;;;;;;0.00;0.00;;;20.00;78.50;;;;;;5073065;28;20025;-79
2023/06/15 02:01:10;;;;;;;0.85;0.85;;;20.20;77.90;;;;;;5073390;28;20031;-80
2023/06/15 02:03:36;;;;;;;0.10;0.10;;;20.00;78.80;;;;;;5074222;28;20033;-79
2023/06/15 02:06:08;;;;;;;0.00;0.00;;;20.00;79.80;;;;;;5072830;28;20028;-80
2023/06/15 02:08:36;;;;;;;0.00;0.00;;;20.00;79.70;;;;;;5074216;28;20068;-80
2023/06/15 02:11:02;;;;;;;0.25;0.20;;;19.90;80.60;;;;;;5072614;28;20035;-80
2023/06/15 02:13:28;;;;;;;0.10;0.10;;;19.80;81.70;;;;;;5056273;28;20047;-80
2023/06/15 02:15:55;;;;;;;0.00;0.00;;;19.70;82.70;;;;;;5073648;28;20031;-80
2023/06/15 02:18:21;;;;;;;0.00;0.00;;;19.70;83.60;;;;;;5073631;28;20028;-80
2023/06/15 02:20:46;;;;;;;0.10;0.10;;;19.90;83.30;;;;;;5072766;28;20040;-80
2023/06/15 02:23:12;;;;;;;0.20;0.20;;;20.00;82.30;;;;;;5059475;28;20067;-80
2023/06/15 02:25:39;;;;;;;0.10;0.10;;;20.10;82.00;;;;;;5073744;28;20056;-80
2023/06/15 02:28:05;;;;;;;0.28;0.28;;;19.90;82.20;;;;;;5069375;28;20032;-79
2023/06/15 02:30:31;;;;;;;0.00;0.00;;;19.70;84.40;;;;;;5072161;28;20100;-80
2023/06/15 02:33:00;;;;;;;0.00;0.00;;;19.90;84.20;;;;;;5072041;28;20095;-79
2023/06/15 02:35:27;;;;;;;0.10;0.10;;;19.80;84.40;;;;;;5072416;28;20107;-79
2023/06/15 02:37:53;;;;;;;0.30;0.30;;;20.20;82.90;;;;;;5071982;28;20032;-80
2023/06/15 02:40:19;;;;;;;0.10;0.10;;;20.10;82.90;;;;;;5072275;28;20029;-80
2023/06/15 02:42:45;;;;;;;0.10;0.10;;;20.00;83.30;;;;;;5054592;28;20056;-79
2023/06/15 02:45:12;;;;;;;0.00;0.00;;;19.90;84.30;;;;;;5072176;28;20409;-79
2023/06/15 02:47:40;;;;;;;0.20;0.20;;;19.80;85.30;;;;;;5071534;28;20036;-78
2023/06/15 02:50:07;;;;;;;0.63;0.63;;;19.80;85.80;;;;;;5073326;28;20048;-79
2023/06/15 02:52:36;;;;;;;1.27;1.17;;;19.80;86.10;;;;;;5071852;28;20509;-80
2023/06/15 02:55:05;;;;;;;0.10;0.10;;;19.60;87.60;;;;;;5071754;28;20107;-80
2023/06/15 02:57:31;;;;;;;0.08;0.08;;;19.50;88.90;;;;;;5072020;28;20027;-79
2023/06/15 03:00:17;;;;;;;0.10;0.10;;;19.40;89.50;;;;;;5071692;28;20028;-80
2023/06/15 03:02:52;;;;;;;0.57;0.35;;;19.70;88.90;;;;;;5071206;28;20070;-80
2023/06/15 03:05:19;;;;;;;0.10;0.10;;;19.80;87.80;;;;;;5071563;28;20032;-80
2023/06/15 03:07:51;;;;;;;0.30;0.30;;;19.80;88.60;;;;;;5071517;28;20128;-80
2023/06/15 03:10:26;;;;;;;0.10;0.10;;;19.50;89.50;;;;;;5071671;28;20448;-79
2023/06/15 03:12:52;;;;;;;0.20;0.20;;;19.40;90.60;;;;;;5071336;28;20060;-78
2023/06/15 03:15:18;;;;;;;0.10;0.10;;;19.60;90.00;;;;;;5071529;28;20115;-80
2023/06/15 03:17:45;;;;;;;7.97;0.90;;;19.70;90.20;;;;;;5071092;28;20111;-81
2023/06/15 03:20:12;;;;;;;0.10;0.10;;;19.70;89.90;;;;;;5071661;28;20020;-80
2023/06/15 03:22:39;;;;;;;0.10;0.10;;;19.70;90.20;;;;;;5054676;28;20024;-80
2023/06/15 03:25:10;;;;;;;0.15;0.15;;;19.70;89.90;;;;;;5071544;28;20037;-80
2023/06/15 03:27:37;;;;;;;0.10;0.10;;;19.40;90.60;;;;;;5071240;28;20032;-80
2023/06/15 03:30:10;;;;;;;0.10;0.10;;;19.20;91.70;;;;;;5071188;28;20111;-80
2023/06/15 03:32:37;;;;;;;0.10;0.10;;;19.30;91.60;;;;;;5070296;28;20132;-80
2023/06/15 03:35:05;;;;;;;0.63;0.57;;;19.40;92.10;;;;;;5071087;28;20024;-80
2023/06/15 03:37:31;;;;;;;0.10;0.10;;;19.20;91.80;;;;;;5070940;28;20350;-80
2023/06/15 03:39:58;;;;;;;0.00;0.00;;;19.20;92.40;;;;;;5071237;28;20039;-80
2023/06/15 03:42:24;;;;;;;0.10;0.10;;;19.20;92.50;;;;;;5070862;28;20032;-81
2023/06/15 03:44:50;;;;;;;0.03;0.03;;;19.50;92.00;;;;;;5071132;28;20098;-80
2023/06/15 03:47:17;;;;;;;0.00;0.00;;;19.50;91.60;;;;;;5070904;28;20033;-80
2023/06/15 03:49:43;;;;;;;0.00;0.00;;;19.60;91.70;;;;;;5072429;28;20029;-79
2023/06/15 03:52:09;;;;;;;0.10;0.10;;;19.80;91.10;;;;;;5071215;28;20036;-80
2023/06/15 03:54:35;;;;;;;0.10;0.10;;;20.00;91.20;;;;;;5054804;28;20411;-80
2023/06/15 03:57:05;;;;;;;0.10;0.10;;;20.10;91.00;;;;;;5075398;28;20123;-80
2023/06/15 03:59:31;;;;;;;0.08;0.08;;;20.20;90.00;;;;;;5076332;28;20526;-79
2023/06/15 04:01:57;;;;;;;0.10;0.10;;;19.90;90.70;;;;;;5075143;28;20028;-79
2023/06/15 04:04:23;;;;;;;0.88;0.85;;;19.70;91.20;;;;;;5074954;28;20036;-80
2023/06/15 04:06:53;;;;;;;0.85;0.85;;;19.60;92.50;;;;;;5075060;28;20090;-76
2023/06/15 04:09:19;;;;;;;0.00;0.00;;;19.60;92.10;;;;;;5074687;28;20127;-77
2023/06/15 04:11:44;;;;;;;0.10;0.10;;;19.60;92.20;;;;;;5075003;28;20124;-79
2023/06/15 04:14:12;;;;;;;0.10;0.10;;;19.50;92.20;;;;;;5075771;28;20036;-79
2023/06/15 04:16:37;;;;;;;1.48;1.40;;;19.40;93.00;;;;;;5075039;28;20070;-79
2023/06/15 04:19:03;;;;;;;0.10;0.10;;;19.70;93.30;;;;;;5074780;28;20071;-79
2023/06/15 04:21:30;;;;;;;0.15;0.15;;;19.60;93.00;;;;;;5075007;28;20058;-79
2023/06/15 04:23:57;;;;;;;0.45;0.45;;;19.80;92.90;;;;;;5075678;28;20028;-79
2023/06/15 04:26:22;;;;;;;0.00;0.00;;;19.70;92.80;;;;;;5074950;28;20029;-79
2023/06/15 04:28:49;;;;;;;0.03;0.03;;;19.90;93.20;;;;;;5074351;28;20094;-79
2023/06/15 04:31:21;;;;;;;1.00;1.00;;;20.10;92.60;;;;;;5057522;28;20056;-79
2023/06/15 04:33:47;;;;;;;0.10;0.10;;;20.10;92.70;;;;;;5067575;28;20020;-80
2023/06/15 04:36:15;;;;;;;1.02;0.80;;;20.10;92.40;;;;;;5074448;28;20024;-79
2023/06/15 04:38:48;;;;;;;0.10;0.10;;;19.60;93.70;;;;;;5074522;28;20017;-80
2023/06/15 04:41:22;;;;;;;0.13;0.13;;;19.60;94.20;;;;;;5074532;28;20032;-78
2023/06/15 04:43:49;;;;;;;1.23;0.73;;;19.90;93.50;;;;;;5074302;28;20036;-79
2023/06/15 04:46:17;;;;;;;0.10;0.10;;;19.90;92.80;;;;;;5057981;28;20131;-78
2023/06/15 04:48:44;;;;;;;0.47;0.47;;;19.70;93.70;;;;;;5074224;28;20036;-79
2023/06/15 04:51:13;;;;;;;0.00;0.00;;;19.80;93.80;;;;;;5074440;28;20032;-78
2023/06/15 04:53:43;;;;;;;0.25;0.25;;;19.60;94.70;;;;;;5073963;28;20117;-79
2023/06/15 04:56:10;;;;;;;0.10;0.10;;;19.40;95.40;;;;;;5074435;28;20025;-78
2023/06/15 04:58:37;;;;;;;0.20;0.20;;;19.80;94.80;;;;;;5073542;28;20028;-78
2023/06/15 05:01:06;;;;;;;0.00;0.00;;;19.70;94.90;;;;;;5074390;28;20540;-79
2023/06/15 05:03:33;;;;;;;0.10;0.10;;;19.50;95.90;;;;;;5074104;28;20488;-79
2023/06/15 05:05:59;;;;;;;0.10;0.10;;;19.70;96.10;;;;;;5073473;28;20028;-79
2023/06/15 05:08:25;;;;;;;0.10;0.10;;;19.70;95.80;;;;;;5064129;28;20040;-77
2023/06/15 05:10:51;;;;;;;0.20;0.20;;;20.00;95.10;;;;;;5073775;28;20013;-80
2023/06/15 05:13:21;;;;;;;0.10;0.10;;;19.90;95.80;;;;;;5073622;28;20028;-80
2023/06/15 05:15:47;;;;;;;0.10;0.10;;;20.10;94.70;;;;;;5073843;28;20021;-79
2023/06/15 05:18:15;;;;;;;0.70;0.70;;;20.50;93.50;;;;;;5073903;28;20028;-79
2023/06/15 05:20:41;;;;;;;0.30;0.30;;;20.40;92.90;;;;;;5073453;28;20024;-79
2023/06/15 05:23:08;;;;;;;0.75;0.75;;;20.30;93.40;;;;;;5074105;28;20064;-78
2023/06/15 05:25:37;;;;;;;0.98;0.98;;;20.40;93.00;;;;;;5074353;28;20540;-80
2023/06/15 05:28:04;;;;;;;0.52;0.52;;;20.10;93.80;;;;;;5073377;28;20119;-80
2023/06/15 05:30:30;;;;;;;3.13;1.55;;;20.30;93.50;;;;;;5073419;28;20020;-80
2023/06/15 05:32:57;;;;;;;0.00;0.00;;;20.30;93.30;;;;;;5073573;28;20041;-80
2023/06/15 05:35:22;;;;;;;0.25;0.25;;;20.40;93.30;;;;;;5056875;28;20127;-79
2023/06/15 05:37:48;;;;;;;0.17;0.17;;;20.70;93.10;;;;;;5074480;28;20021;-78
2023/06/15 05:40:14;;;;;;;0.00;0.00;;;20.70;93.30;;;;;;5073179;28;20035;-79
2023/06/15 05:42:41;;;;;;;0.20;0.20;;;20.50;93.50;;;;;;5072985;28;20024;-79
2023/06/15 05:45:08;;;;;;;0.38;0.25;;;20.60;93.50;;;;;;5073345;28;20074;-80
2023/06/15 05:47:35;;;;;;;0.00;0.00;;;20.70;94.40;;;;;;5073448;28;20060;-79
2023/06/15 05:50:02;;;;;;;0.38;0.38;;;20.80;93.80;;;;;;5072977;28;20036;-79
2023/06/15 05:52:29;;;;;;;0.00;0.00;;;20.80;93.50;;;;;;5072723;28;20040;-79
2023/06/15 05:54:55;;;;;;;0.22;0.22;;;20.70;93.30;;;;;;5072536;28;20032;-79
2023/06/15 05:57:21;;;;;;;0.60;0.40;;;21.00;93.00;;;;;;5056086;28;20024;-75
2023/06/15 05:59:47;;;;;;;0.50;0.50;;;21.00;92.90;;;;;;5042279;28;20025;-78
2023/06/15 06:02:13;;;;;;;0.08;0.08;;;21.20;93.40;;;;;;5053095;28;20017;-78
2023/06/15 06:04:39;;;;;;;0.40;0.40;;;21.60;92.00;;;;;;5051987;28;20021;-78
2023/06/15 06:07:06;;;;;;;0.43;0.43;;;21.80;91.20;;;;;;5053497;28;20024;-80
2023/06/15 06:09:34;;;;;;;0.73;0.55;;;21.50;91.00;;;;;;5041964;28;20446;-78
2023/06/15 06:12:01;;;;;;;0.10;0.10;;;21.60;91.00;;;;;;5052083;28;20397;-79
2023/06/15 06:14:28;;;;;;;0.50;0.50;;;21.90;90.20;;;;;;5051540;28;20041;-79
2023/06/15 06:16:55;;;;;;;0.20;0.20;;;21.90;90.10;;;;;;5052752;28;20060;-78
2023/06/15 06:19:25;;;;;;;0.00;0.00;;;22.10;87.90;;;;;;5051133;28;20421;-79
2023/06/15 06:21:51;;;;;;;0.98;0.52;;;22.30;87.40;;;;;;5051646;28;20025;-79
2023/06/15 06:24:18;;;;;;;0.45;0.45;;;22.40;87.50;;;;;;5051494;28;20116;-78
2023/06/15 06:26:46;;;;;;;0.75;0.55;;;22.70;84.10;;;;;;5051319;28;20035;-78
2023/06/15 06:29:12;;;;;;;0.10;0.10;;;22.50;84.40;;;;;;5051147;28;20033;-79
2023/06/15 06:31:37;;;;;;;0.10;0.10;;;22.70;84.10;;;;;;5052614;28;20021;-78
2023/06/15 06:34:03;;;;;;;0.10;0.10;;;22.50;85.20;;;;;;5052737;28;20033;-79
2023/06/15 06:36:30;;;;;;;0.10;0.10;;;22.80;83.90;;;;;;5055607;28;20063;-79
2023/06/15 06:38:56;;;;;;;0.30;0.30;;;22.80;83.50;;;;;;5066592;28;20105;-79
2023/06/15 06:41:21;;;;;;;1.98;1.30;;;22.90;82.70;;;;;;5068099;28;20079;-78
2023/06/15 06:43:47;;;;;;;0.13;0.13;;;22.70;82.90;;;;;;5066948;28;20040;-79
2023/06/15 06:46:14;;;;;;;1.27;1.17;;;22.80;83.00;;;;;;5056631;28;20044;-78
2023/06/15 06:48:40;;;;;;;0.50;0.50;;;22.60;81.70;;;;;;5064388;28;20048;-75
2023/06/15 06:51:06;;;;;;;0.15;0.15;;;22.60;83.40;;;;;;5067183;28;20024;-78
2023/06/15 06:53:31;;;;;;;0.00;0.00;;;23.00;82.60;;;;;;5066195;28;20041;-79
2023/06/15 06:55:57;;;;;;;0.17;0.17;;;23.40;81.50;;;;;;5054889;28;20051;-80
2023/06/15 06:58:23;;;;;;;0.10;0.10;;;23.60;80.00;;;;;;5053354;28;20033;-79
2023/06/15 07:00:48;;;;;;;0.00;0.00;;;23.60;79.90;;;;;;5042298;28;20017;-79
2023/06/15 07:03:14;;;;;;;0.10;0.10;;;23.90;79.50;;;;;;5049737;28;20096;-77
2023/06/15 07:05:41;;;;;;;0.00;0.00;;;24.10;79.30;;;;;;5051029;28;20021;-79
2023/06/15 07:08:06;;;;;;;0.73;0.73;;;24.50;77.90;;;;;;5051875;28;20040;-80
2023/06/15 07:10:32;;;;;;;1.40;0.93;;;24.50;77.40;;;;;;5050626;28;20533;-79
2023/06/15 07:12:58;;;;;;;0.00;0.00;;;24.20;78.40;;;;;;5051944;28;20037;-80
2023/06/15 07:15:27;;;;;;;2.88;2.67;;;24.10;78.80;;;;;;5051891;28;20029;-80
2023/06/15 07:17:53;;;;;;;0.00;0.00;;;24.20;78.90;;;;;;5051983;28;20389;-80
2023/06/15 07:20:19;;;;;;;0.00;0.00;;;24.40;78.10;;;;;;5051888;28;20098;-77
2023/06/15 07:22:45;;;;;;;0.00;0.00;;;24.40;77.20;;;;;;5051586;28;20461;-80
2023/06/15 07:25:10;;;;;;;0.10;0.10;;;24.60;77.30;;;;;;5051950;28;20151;-80
2023/06/15 07:27:36;;;;;;;0.75;0.75;;;24.80;77.40;;;;;;5051099;28;20112;-79
2023/06/15 07:30:02;;;;;;;0.20;0.20;;;25.00;75.10;;;;;;5051513;28;20033;-80
2023/06/15 07:32:28;;;;;;;0.00;0.00;;;25.10;75.80;;;;;;5051495;28;20477;-80
2023/06/15 07:34:53;;;;;;;0.00;0.00;;;25.40;74.50;;;;;;5051607;28;20029;-80
2023/06/15 07:37:19;;;;;;;0.20;0.20;;;25.70;74.60;;;;;;5059622;28;20028;-80
2023/06/15 07:39:45;;;;;;;0.20;0.20;;;25.70;74.20;;;;;;5065039;28;20128;-79
2023/06/15 07:42:11;;;;;;;0.00;0.00;;;25.60;73.40;;;;;;5069338;28;20143;-80
2023/06/15 07:44:36;;;;;;;0.20;0.20;;;25.80;73.20;;;;;;5059296;28;20035;-79
2023/06/15 07:47:03;;;;;;;0.00;0.00;;;25.90;73.90;;;;;;5062050;28;20029;-80
2023/06/15 07:49:28;;;;;;;0.10;0.10;;;26.00;73.00;;;;;;5060566;28;20033;-80
2023/06/15 07:51:54;;;;;;;1.83;0.50;;;25.90;73.50;;;;;;5065801;28;20491;-80
2023/06/15 07:54:20;;;;;;;0.00;0.00;;;25.60;73.60;;;;;;5071816;28;20074;-81
2023/06/15 07:56:46;;;;;;;0.10;0.10;;;25.50;74.00;;;;;;5058930;28;20091;-80
2023/06/15 07:59:12;;;;;;;0.10;0.10;;;25.90;71.40;;;;;;5060090;28;20017;-79
2023/06/15 08:01:38;;;;;;;0.20;0.20;;;26.10;72.20;;;;;;5061735;28;20048;-79
2023/06/15 08:04:04;;;;;;;0.20;0.20;;;26.10;71.30;;;;;;5069820;28;20438;-79
2023/06/15 08:06:30;;;;;;;0.00;0.00;;;26.30;70.60;;;;;;5059922;28;20064;-80
2023/06/15 08:08:56;;;;;;;0.00;0.00;;;26.50;71.20;;;;;;5059192;28;20044;-81
2023/06/15 08:11:22;;;;;;;0.00;0.00;;;26.60;70.50;;;;;;5060869;28;20534;-79
2023/06/15 08:13:48;;;;;;;1.35;0.70;;;26.20;71.70;;;;;;5067241;28;20028;-79
2023/06/15 08:16:14;;;;;;;0.52;0.52;;;26.10;70.80;;;;;;5071411;28;20600;-79
2023/06/15 08:18:40;;;;;;;0.32;0.32;;;26.10;69.80;;;;;;5072060;28;20060;-79
2023/06/15 08:21:05;;;;;;;0.85;0.80;;;26.40;68.90;;;;;;5072200;28;20055;-80
2023/06/15 08:23:31;;;;;;;0.00;0.00;;;26.40;70.10;;;;;;5070901;28;20032;-80
2023/06/15 08:25:57;;;;;;;0.20;0.20;;;26.50;69.50;;;;;;5070762;28;20389;-79
2023/06/15 08:28:22;;;;;;;0.28;0.28;;;26.60;69.80;;;;;;5070882;28;20142;-80
2023/06/15 08:30:51;;;;;;;0.00;0.00;;;26.50;70.00;;;;;;5070767;28;20020;-77
2023/06/15 08:33:18;;;;;;;0.30;0.30;;;26.70;69.10;;;;;;5071987;28;20133;-81
2023/06/15 08:35:44;;;;;;;0.00;0.00;;;27.00;68.80;;;;;;5071925;28;20062;-80
2023/06/15 08:38:10;;;;;;;0.30;0.30;;;27.00;68.30;;;;;;5072003;28;20020;-79
2023/06/15 08:40:36;;;;;;;0.22;0.22;;;27.50;67.30;;;;;;5039515;28;20478;-79
2023/06/15 08:43:06;;;;;;;0.30;0.30;;;27.40;67.50;;;;;;5054466;28;20072;-80
2023/06/15 08:45:42;;;;;;;0.10;0.10;;;27.70;67.40;;;;;;5054766;28;20021;-80
2023/06/15 08:48:10;;;;;;;0.65;0.65;;;27.70;65.60;;;;;;5054703;28;20048;-80
2023/06/15 08:50:38;;;;;;;0.38;0.30;;;27.40;66.70;;;;;;5053202;28;20159;-80
2023/06/15 08:53:08;;;;;;;0.20;0.20;;;27.40;66.70;;;;;;5054584;28;20037;-81
2023/06/15 08:55:35;;;;;;;1.92;1.75;;;27.90;66.20;;;;;;5053625;28;20485;-80
2023/06/15 08:58:01;;;;;;;0.00;0.00;;;27.60;66.50;;;;;;5054398;28;20029;-81
2023/06/15 09:00:27;;;;;;;0.30;0.30;;;27.70;65.50;;;;;;5054639;28;20473;-79
2023/06/15 09:02:57;;;;;;;0.63;0.57;;;28.00;65.20;;;;;;5053843;28;20029;-79
2023/06/15 09:05:24;;;;;;;0.08;0.08;;;27.90;65.20;;;;;;5054153;28;20021;-80
2023/06/15 09:07:50;;;;;;;0.00;0.00;;;27.80;66.10;;;;;;5054258;28;20078;-78
2023/06/15 09:10:18;;;;;;;0.52;0.52;;;28.10;64.80;;;;;;5054041;28;20032;-79
2023/06/15 09:12:47;;;;;;;0.00;0.00;;;27.40;62.90;;;;;;5057554;28;20032;-80
2023/06/15 09:15:24;;;;;;;0.17;0.17;;;27.00;65.50;;;;;;5065585;28;20037;-79
2023/06/15 09:17:51;;;;;;;0.20;0.20;;;27.00;65.70;;;;;;5056388;28;20033;-79
2023/06/15 09:20:21;;;;;;;0.20;0.20;;;27.20;64.10;;;;;;5053002;28;20063;-79
2023/06/15 09:22:47;;;;;;;0.10;0.10;;;27.50;65.40;;;;;;5054645;28;20055;-80
2023/06/15 09:25:20;;;;;;;0.10;0.10;;;27.60;63.50;;;;;;5054872;28;20463;-79
2023/06/15 09:27:58;;;;;;;1.70;1.40;;;27.50;63.90;;;;;;5054955;28;20041;-79
2023/06/15 09:30:36;;;;;;;1.00;0.93;;;27.30;63.90;;;;;;5055715;28;20040;-79
2023/06/15 09:33:12;;;;;;;0.00;0.00;;;27.60;63.40;;;;;;5055309;28;20428;-79
2023/06/15 09:36:05;;;;;;;0.10;0.10;;;27.50;63.90;;;;;;5053284;28;20469;-79
2023/06/15 09:38:42;;;;;;;0.50;0.50;;;28.20;63.80;;;;;;5048104;28;20051;-77
2023/06/15 09:41:08;;;;;;;0.40;0.40;;;28.20;62.70;;;;;;5056712;28;20036;-79
2023/06/15 09:43:37;;;;;;;0.22;0.22;;;28.20;62.30;;;;;;5062728;28;20032;-79
2023/06/15 09:46:13;;;;;;;0.10;0.10;;;28.20;61.90;;;;;;5064948;28;20033;-77
2023/06/15 09:48:40;;;;;;;0.40;0.38;;;28.20;62.50;;;;;;5071804;28;20724;-79
2023/06/15 09:51:06;;;;;;;0.10;0.10;;;28.10;61.60;;;;;;5078107;28;20502;-80
2023/06/15 09:53:32;;;;;;;0.50;0.50;;;28.20;61.90;;;;;;5066381;28;20054;-79
2023/06/15 09:56:00;;;;;;;0.28;0.28;;;27.90;62.10;;;;;;5067989;28;20079;-80
2023/06/15 09:58:27;;;;;;;0.88;0.75;;;28.30;62.70;;;;;;5075433;28;20039;-79
2023/06/15 10:00:57;;;;;;;0.47;0.43;;;28.80;61.20;;;;;;5083531;28;20044;-79
2023/06/15 10:03:25;;;;;;;2.90;0.40;;;28.60;62.20;;;;;;5067877;28;20055;-78
2023/06/15 10:05:58;;;;;;;0.38;0.38;;;29.00;61.90;;;;;;5069302;28;20282;-79
2023/06/15 10:08:26;;;;;;;0.00;0.00;;;28.80;61.50;;;;;;5071751;28;20040;-78
2023/06/15 10:10:56;;;;;;;0.85;0.40;;;28.90;62.90;;;;;;5067248;28;20027;-79
2023/06/15 10:13:28;;;;;;;0.57;0.57;;;28.90;61.10;;;;;;5082227;28;20052;-79
2023/06/15 10:15:57;;;;;;;1.45;0.82;;;29.10;60.10;;;;;;5061367;28;20021;-78
2023/06/15 10:18:25;;;;;;;0.00;0.00;;;28.90;59.80;;;;;;5060990;28;20083;-80
2023/06/15 10:20:53;;;;;;;0.43;0.43;;;29.00;61.00;;;;;;5072387;28;20473;-80
2023/06/15 10:23:25;;;;;;;0.03;0.03;;;29.30;58.60;;;;;;5078395;28;20604;-81
2023/06/15 10:25:55;;;;;;;0.03;0.03;;;29.80;59.30;;;;;;5084016;28;20031;-80
2023/06/15 10:28:25;;;;;;;0.10;0.10;;;29.90;59.40;;;;;;5073693;28;20037;-79
2023/06/15 10:31:32;;;;;;;1.42;0.65;;;29.80;58.90;;;;;;5072873;28;20029;-78
2023/06/15 10:33:58;;;;;;;0.10;0.10;;;30.00;59.90;;;;;;5014987;28;20083;-81
2023/06/15 10:36:29;;;;;;;1.08;0.85;;;30.20;59.30;;;;;;5018408;28;20517;-80
2023/06/15 10:39:10;;;;;;;0.00;0.00;;;30.50;59.00;;;;;;5050328;28;20115;-79
2023/06/15 10:41:39;;;;;;;0.77;0.40;;;30.20;59.10;;;;;;5074739;28;20043;-78
2023/06/15 10:44:05;;;;;;;0.00;0.00;;;30.10;59.50;;;;;;5056132;28;20024;-79
2023/06/15 10:46:36;;;;;;;0.38;0.38;;;30.20;60.30;;;;;;5055414;28;20060;-79
2023/06/15 10:49:06;;;;;;;0.00;0.00;;;30.70;59.20;;;;;;5053269;28;20041;-79
2023/06/15 10:51:42;;;;;;;0.10;0.10;;;31.00;57.70;;;;;;5056917;28;20048;-79
2023/06/15 10:54:27;;;;;;;0.15;0.08;;;31.20;58.00;;;;;;5057537;28;20024;-79
2023/06/15 10:56:55;;;;;;;1.77;0.80;;;31.00;57.40;;;;;;5052109;28;20510;-74
2023/06/15 10:59:41;;;;;;;0.40;0.40;;;29.90;57.40;;;;;;5052861;28;20407;-78
2023/06/15 11:02:28;;;;;;;0.30;0.30;;;29.80;58.70;;;;;;5052186;28;20108;-76
2023/06/15 11:05:02;;;;;;;2.35;0.90;;;30.00;57.90;;;;;;5050529;28;20025;-79
2023/06/15 11:07:32;;;;;;;1.23;0.63;;;29.90;57.80;;;;;;5047826;28;20032;-79
2023/06/15 11:10:01;;;;;;;0.00;0.00;;;30.30;58.90;;;;;;5050932;28;20075;-78
2023/06/15 11:12:38;;;;;;;0.08;0.08;;;30.30;56.90;;;;;;5050405;28;20416;-78
2023/06/15 11:15:05;;;;;;;0.60;0.60;;;29.80;57.10;;;;;;5044886;28;20033;-79
2023/06/15 11:17:51;;;;;;;0.40;0.40;;;30.20;57.80;;;;;;5051824;28;20020;-79
2023/06/15 11:20:37;;;;;;;0.20;0.10;;;30.40;57.90;;;;;;5050728;28;20119;-78
2023/06/15 11:23:16;;;;;;;0.98;0.90;;;30.80;57.10;;;;;;5037904;28;20167;-78
2023/06/15 11:25:46;;;;;;;0.10;0.10;;;30.60;55.90;;;;;;5050527;28;20499;-78
2023/06/15 11:28:21;;;;;;;0.10;0.10;;;31.30;56.70;;;;;;5051696;28;20056;-79
2023/06/15 11:31:07;;;;;;;0.20;0.20;;;31.40;56.70;;;;;;5051503;28;20033;-78
2023/06/15 11:33:40;;;;;;;0.30;0.30;;;31.20;56.10;;;;;;5050202;28;20470;-78
2023/06/15 11:36:08;;;;;;;2.00;1.00;;;31.40;55.90;;;;;;5049829;28;20078;-79
2023/06/15 11:38:34;;;;;;;0.38;0.38;;;32.10;55.70;;;;;;5053483;28;20533;-78
2023/06/15 11:41:04;;;;;;;0.05;0.05;;;32.40;55.80;;;;;;5058597;28;20035;-78
2023/06/15 11:43:51;;;;;;;0.65;0.65;;;32.50;54.20;;;;;;5059268;28;20032;-78
2023/06/15 11:46:23;;;;;;;0.17;0.17;;;31.90;54.40;;;;;;5070168;28;20064;-78
2023/06/15 11:48:54;;;;;;;0.47;0.40;;;31.60;56.50;;;;;;5054206;28;20036;-78
2023/06/15 11:51:20;;;;;;;0.25;0.25;;;31.40;54.70;;;;;;5058565;28;20462;-78
2023/06/15 11:53:47;;;;;;;0.00;0.00;;;31.40;54.40;;;;;;5066140;28;20085;-78
2023/06/15 11:56:15;;;;;;;0.45;0.45;;;31.30;56.10;;;;;;5070222;28;20048;-78
2023/06/15 11:58:48;;;;;;;1.55;0.95;;;31.80;55.30;;;;;;5069007;28;20498;-78
2023/06/15 12:01:15;;;;;;;1.10;1.00;;;31.80;55.00;;;;;;5072318;28;20127;-78
2023/06/15 12:03:49;;;;;;;2.10;0.57;;;31.80;54.20;;;;;;5071759;28;20051;-78
2023/06/15 12:06:20;;;;;;;0.05;0.05;;;30.40;54.70;;;;;;5072219;28;20051;-78
2023/06/15 12:08:50;;;;;;;0.07;0.07;;;30.50;55.00;;;;;;5071262;28;20042;-78
2023/06/15 12:11:15;;;;;;;0.57;0.15;;;31.30;55.30;;;;;;5071137;28;20274;-78
2023/06/15 12:13:41;;;;;;;0.17;0.17;;;31.40;53.90;;;;;;5070641;28;20443;-78
2023/06/15 12:16:07;;;;;;;1.63;0.80;;;31.90;55.00;;;;;;5071996;28;20056;-78
2023/06/15 12:18:33;;;;;;;0.08;0.08;;;31.60;55.20;;;;;;5075157;28;20075;-78
2023/06/15 12:21:03;;;;;;;0.20;0.20;;;32.50;55.00;;;;;;5062423;28;20493;-77
2023/06/15 12:23:30;;;;;;;0.60;0.60;;;33.10;53.40;;;;;;5053018;28;20519;-76
2023/06/15 12:25:57;;;;;;;1.45;0.90;;;32.00;53.30;;;;;;5054258;28;20477;-77
2023/06/15 12:28:27;;;;;;;0.10;0.10;;;31.70;55.40;;;;;;5054994;28;20496;-78
2023/06/15 12:31:11;;;;;;;0.37;0.33;;;32.10;53.90;;;;;;5055137;28;20124;-78
2023/06/15 12:33:42;;;;;;;0.40;0.40;;;32.00;52.80;;;;;;5055049;28;20283;-78
2023/06/15 12:36:10;;;;;;;0.73;0.63;;;31.60;52.90;;;;;;5053459;28;20025;-77
2023/06/15 12:38:37;;;;;;;0.20;0.20;;;31.70;52.80;;;;;;5071074;28;20025;-78
2023/06/15 12:41:03;;;;;;;0.38;0.38;;;31.70;54.80;;;;;;5073754;28;20036;-78
2023/06/15 12:43:30;;;;;;;0.32;0.32;;;32.20;53.50;;;;;;5060392;28;20066;-77
2023/06/15 12:45:56;;;;;;;0.13;0.13;;;31.60;53.00;;;;;;5061394;28;20086;-78
2023/06/15 12:48:22;;;;;;;0.10;0.10;;;31.70;53.90;;;;;;5066630;28;20032;-76
2023/06/15 12:50:52;;;;;;;0.10;0.10;;;32.50;53.80;;;;;;5067670;28;20025;-78
2023/06/15 12:53:18;;;;;;;0.40;0.40;;;32.70;53.90;;;;;;5070401;28;20062;-78